Inmocean — ZCXX2 — position and weather

sailwx.info

Track history (hours):
 
Tides and Currents Weather Stations Pressure Air Temp Water Temp Dewpoint Dewpoint Depression Visibility Wind Speed Wind Dir Waves Ship Positions

Inmocean

Last reported at 2015-Apr-30 10:15 UTC. Time now 2015-May-03 08:49 UTC.
Position N 39°20' E 002°13'.

Type: Sailing vessel. MMSI: 319120000.

Date/timePositionNaut miles runAvg speedWind from/ knotsBaromVisibWave heightAir tempDewpointWater temp
2015-Apr-30 10:15N 39°20' E 002°13'7 9.5
2015-Apr-30 09:33N 39°24' E 002°20'8 0.2
2015-Apr-28 18:29N 39°29' E 002°28'5 5.7
2015-Apr-28 17:33N 39°25' E 002°32'6 5.8
2015-Apr-28 16:33N 39°27' E 002°39'11 8.0
2015-Apr-28 15:11N 39°20' E 002°50'11 6.2
2015-Apr-28 13:28N 39°15' E 003°02'6 6.4
2015-Apr-28 12:33N 39°15' E 003°10'9 6.6
2015-Apr-28 11:14N 39°16' E 003°21'  
2015-Apr-25 14:31N 36°19' E 013°48'9 9.0
2015-Apr-25 13:33N 36°15' E 013°57'9 9.3
2015-Apr-25 12:33N 36°11' E 014°07'9 9.5
2015-Apr-25 11:33N 36°06' E 014°17'1010.0
2015-Apr-25 10:33N 36°00' E 014°27'  
2015-Apr-22 11:27N 35°54' E 014°32'2 2.6
2015-Apr-22 10:33N 35°57' E 014°31'10 9.7
2015-Apr-22 09:33N 36°03' E 014°22'10 9.6
2015-Apr-22 08:33N 36°08' E 014°12'10 9.8
2015-Apr-22 07:32N 36°12' E 014°01'10 9.6
2015-Apr-22 06:33N 36°16' E 013°50'  
Track history (hours):
 
Tides and Currents Weather Stations Pressure Air Temp Water Temp Dewpoint Dewpoint Depression Visibility Wind Speed Wind Dir Waves Ship Positions

Inmocean

Last reported at 2015-Apr-30 10:15 UTC. Time now 2015-May-03 08:49 UTC.
Position N 39°20' E 002°13'.

Type: Sailing vessel. MMSI: 319120000.

Date/timePositionNaut miles runAvg speedWind from/ knotsBaromVisibWave heightAir tempDewpointWater temp
2015-Apr-30 10:15N 39°20' E 002°13'7 9.5
2015-Apr-30 09:33N 39°24' E 002°20'8 0.2
2015-Apr-28 18:29N 39°29' E 002°28'5 5.7
2015-Apr-28 17:33N 39°25' E 002°32'6 5.8
2015-Apr-28 16:33N 39°27' E 002°39'11 8.0
2015-Apr-28 15:11N 39°20' E 002°50'11 6.2
2015-Apr-28 13:28N 39°15' E 003°02'6 6.4
2015-Apr-28 12:33N 39°15' E 003°10'9 6.6
2015-Apr-28 11:14N 39°16' E 003°21'  
2015-Apr-25 14:31N 36°19' E 013°48'9 9.0
2015-Apr-25 13:33N 36°15' E 013°57'9 9.3
2015-Apr-25 12:33N 36°11' E 014°07'9 9.5
2015-Apr-25 11:33N 36°06' E 014°17'1010.0
2015-Apr-25 10:33N 36°00' E 014°27'  
2015-Apr-22 11:27N 35°54' E 014°32'2 2.6
2015-Apr-22 10:33N 35°57' E 014°31'10 9.7
2015-Apr-22 09:33N 36°03' E 014°22'10 9.6
2015-Apr-22 08:33N 36°08' E 014°12'10 9.8
2015-Apr-22 07:32N 36°12' E 014°01'10 9.6
2015-Apr-22 06:33N 36°16' E 013°50'  

Dump ship's entire track history